Time;durP1;ratioP1;P1;durP2;ratioP2;P2;SDS_P1;SDS_P2;PMS_P1;PMS_P2;Temp;Humidity;BMP_temperature;BMP_pressure;BME280_temperature;BME280_humidity;BME280_pressure;Samples;Min_cycle;Max_cycle;Signal;HPM_P1;HPM_P2
2021/08/06 00:01:11;;;;;;;13.13;11.80;;;15.20;99.90;;;;;;5067969;28;20063;-47
2021/08/06 00:03:36;;;;;;;16.10;12.88;;;15.20;99.90;;;;;;5065946;28;20493;-48
2021/08/06 00:06:03;;;;;;;17.30;14.05;;;15.20;99.90;;;;;;5067974;28;20017;-46
2021/08/06 00:08:28;;;;;;;14.25;12.75;;;15.20;99.90;;;;;;5070303;28;20033;-47
2021/08/06 00:10:54;;;;;;;13.93;12.43;;;15.10;99.90;;;;;;5071647;28;20039;-49
2021/08/06 00:13:19;;;;;;;12.40;11.07;;;15.10;99.90;;;;;;5070797;28;20490;-47
2021/08/06 00:15:45;;;;;;;16.80;13.25;;;15.10;99.90;;;;;;5071645;28;20056;-46
2021/08/06 00:18:10;;;;;;;14.88;13.38;;;15.10;99.90;;;;;;5071360;28;20063;-46
2021/08/06 00:20:36;;;;;;;15.32;13.65;;;15.10;99.90;;;;;;5071611;28;20027;-46
2021/08/06 00:23:04;;;;;;;15.38;13.77;;;15.10;99.90;;;;;;5071635;28;20032;-46
2021/08/06 00:25:30;;;;;;;17.52;15.00;;;15.10;99.90;;;;;;5071092;28;20016;-46
2021/08/06 00:27:55;;;;;;;16.45;14.73;;;15.00;99.90;;;;;;5071497;28;20035;-46
2021/08/06 00:30:21;;;;;;;18.33;14.32;;;15.00;99.90;;;;;;5071431;28;20055;-46
2021/08/06 00:32:47;;;;;;;14.48;13.00;;;15.00;99.90;;;;;;5071215;28;20162;-47
2021/08/06 00:35:13;;;;;;;16.02;13.82;;;15.00;99.90;;;;;;5070531;28;20115;-47
2021/08/06 00:37:38;;;;;;;18.38;15.55;;;14.90;99.90;;;;;;5069847;28;20033;-47
2021/08/06 00:40:05;;;;;;;20.02;16.88;;;14.90;99.90;;;;;;5071135;28;20081;-49
2021/08/06 00:42:30;;;;;;;20.95;16.42;;;14.90;99.90;;;;;;5069712;28;20251;-49
2021/08/06 00:44:56;;;;;;;21.55;17.58;;;14.90;99.90;;;;;;5070416;28;20114;-47
2021/08/06 00:47:21;;;;;;;18.92;16.42;;;14.90;99.90;;;;;;5070995;28;20035;-46
2021/08/06 00:49:47;;;;;;;20.38;17.40;;;14.90;99.90;;;;;;5070923;28;20021;-46
2021/08/06 00:52:14;;;;;;;20.90;18.17;;;14.90;99.90;;;;;;5071101;28;20107;-47
2021/08/06 00:54:40;;;;;;;22.50;17.25;;;14.90;99.90;;;;;;5070199;28;20390;-47
2021/08/06 00:57:05;;;;;;;23.02;17.00;;;14.90;99.90;;;;;;5069373;28;20024;-46
2021/08/06 00:59:31;;;;;;;23.67;19.08;;;14.90;99.90;;;;;;5070830;28;20560;-48
2021/08/06 01:02:18;;;;;;;23.92;19.88;;;14.80;99.90;;;;;;5070717;28;20024;-46
2021/08/06 01:04:52;;;;;;;27.70;21.65;;;14.80;99.90;;;;;;5070028;28;20016;-47
2021/08/06 01:07:39;;;;;;;21.48;17.80;;;14.80;99.90;;;;;;5070906;28;20212;-48
2021/08/06 01:10:09;;;;;;;27.42;20.73;;;14.80;99.90;;;;;;5070800;28;20098;-47
2021/08/06 01:12:48;;;;;;;22.45;18.83;;;14.70;99.90;;;;;;5070754;28;20493;-47
2021/08/06 01:15:14;;;;;;;26.25;21.33;;;14.70;99.90;;;;;;5069633;28;20052;-47
2021/08/06 01:17:44;;;;;;;25.05;21.73;;;14.70;99.90;;;;;;5070293;28;20486;-47
2021/08/06 01:20:16;;;;;;;22.60;18.92;;;14.70;99.90;;;;;;5071091;28;20017;-47
2021/08/06 01:22:52;;;;;;;23.75;20.02;;;14.60;99.90;;;;;;5070372;28;20033;-47
2021/08/06 01:25:26;;;;;;;25.83;21.48;;;14.60;99.90;;;;;;5069702;28;20174;-47
2021/08/06 01:27:52;;;;;;;25.30;20.83;;;14.60;99.90;;;;;;5070350;28;20416;-47
2021/08/06 01:30:17;;;;;;;23.83;20.42;;;14.60;99.90;;;;;;5070434;28;20024;-47
2021/08/06 01:32:43;;;;;;;24.95;20.08;;;14.60;99.90;;;;;;5070336;28;20033;-48
2021/08/06 01:35:09;;;;;;;26.90;21.83;;;14.50;99.90;;;;;;5069417;28;20198;-47
2021/08/06 01:37:35;;;;;;;23.40;20.25;;;14.50;99.90;;;;;;5070044;28;20308;-48
2021/08/06 01:40:07;;;;;;;25.40;20.25;;;14.50;99.90;;;;;;5070299;28;20029;-47
2021/08/06 01:42:48;;;;;;;25.13;19.77;;;14.50;99.90;;;;;;5070021;28;20016;-47
2021/08/06 01:45:19;;;;;;;28.02;22.40;;;14.40;99.90;;;;;;5069296;28;20016;-47
2021/08/06 01:47:51;;;;;;;29.88;24.95;;;14.40;99.90;;;;;;5069950;28;20039;-49
2021/08/06 01:50:38;;;;;;;24.33;19.92;;;14.40;99.90;;;;;;5068488;28;20273;-47
2021/08/06 01:53:08;;;;;;;26.73;21.63;;;14.40;99.90;;;;;;5069726;28;20417;-47
2021/08/06 01:55:40;;;;;;;27.38;22.05;;;14.40;99.90;;;;;;5069178;28;20470;-49
2021/08/06 01:58:07;;;;;;;24.70;21.90;;;14.40;99.90;;;;;;5068127;28;20036;-47
2021/08/06 02:00:34;;;;;;;26.25;21.52;;;14.40;99.90;;;;;;5069560;28;20016;-48
2021/08/06 02:02:59;;;;;;;27.40;21.58;;;14.40;99.90;;;;;;5069712;28;20031;-48
2021/08/06 02:05:26;;;;;;;26.40;21.88;;;14.30;99.90;;;;;;5068974;28;20020;-47
2021/08/06 02:07:52;;;;;;;25.85;20.58;;;14.30;99.90;;;;;;5069887;28;20025;-47
2021/08/06 02:10:19;;;;;;;25.42;20.35;;;14.30;99.90;;;;;;5069565;28;20028;-47
2021/08/06 02:12:44;;;;;;;25.30;20.58;;;14.30;99.90;;;;;;5069534;28;20040;-47
2021/08/06 02:15:12;;;;;;;26.55;21.17;;;14.30;99.90;;;;;;5068770;28;20500;-48
2021/08/06 02:17:39;;;;;;;26.70;22.10;;;14.30;99.90;;;;;;5069111;28;20035;-48
2021/08/06 02:20:06;;;;;;;23.73;19.35;;;14.30;99.90;;;;;;5069451;28;20049;-47
2021/08/06 02:22:33;;;;;;;24.48;20.80;;;14.30;99.90;;;;;;5069373;28;20029;-48
2021/08/06 02:25:01;;;;;;;26.38;22.05;;;14.30;99.90;;;;;;5068751;28;20020;-47
2021/08/06 02:27:27;;;;;;;23.23;19.33;;;14.30;99.90;;;;;;5069492;28;20236;-46
2021/08/06 02:29:56;;;;;;;25.50;20.52;;;14.20;99.90;;;;;;5068474;28;20513;-47
2021/08/06 02:32:22;;;;;;;22.70;19.60;;;14.20;99.90;;;;;;5069128;28;20029;-47
2021/08/06 02:34:49;;;;;;;27.88;22.77;;;14.20;99.90;;;;;;5068279;28;20398;-48
2021/08/06 02:37:14;;;;;;;29.42;23.40;;;14.20;99.90;;;;;;5068853;28;20109;-47
2021/08/06 02:39:40;;;;;;;27.92;22.70;;;14.20;99.90;;;;;;5068663;28;20513;-47
2021/08/06 02:42:05;;;;;;;32.10;25.85;;;14.20;99.90;;;;;;5068892;28;20027;-50
2021/08/06 02:44:35;;;;;;;34.70;27.48;;;14.20;99.90;;;;;;5068237;28;20028;-47
2021/08/06 02:47:01;;;;;;;36.30;28.33;;;14.10;99.90;;;;;;5068878;28;20490;-48
2021/08/06 02:49:31;;;;;;;30.80;25.38;;;14.10;99.90;;;;;;5068723;28;20044;-48
2021/08/06 02:51:57;;;;;;;32.53;25.67;;;14.10;99.90;;;;;;5068715;28;20024;-46
2021/08/06 02:54:23;;;;;;;30.17;23.73;;;14.10;99.90;;;;;;5067957;28;20035;-46
2021/08/06 02:56:48;;;;;;;29.45;23.85;;;14.10;99.90;;;;;;5068855;28;20036;-47
2021/08/06 02:59:14;;;;;;;29.05;22.55;;;14.10;99.90;;;;;;5068753;28;20027;-47
2021/08/06 03:01:39;;;;;;;26.25;22.48;;;14.10;99.90;;;;;;5068678;28;20103;-47
2021/08/06 03:04:05;;;;;;;27.90;22.95;;;14.00;99.90;;;;;;5066658;28;20058;-47
2021/08/06 03:06:30;;;;;;;31.60;24.20;;;14.00;99.90;;;;;;5068647;28;20024;-46
2021/08/06 03:08:56;;;;;;;27.88;22.92;;;14.00;99.90;;;;;;5068538;28;20031;-46
2021/08/06 03:11:21;;;;;;;26.60;21.98;;;14.00;99.90;;;;;;5068458;28;20444;-48
2021/08/06 03:13:47;;;;;;;30.75;22.08;;;14.00;99.90;;;;;;5067883;28;20071;-47
2021/08/06 03:16:13;;;;;;;28.27;23.63;;;14.00;99.90;;;;;;5067198;28;20012;-47
2021/08/06 03:18:38;;;;;;;26.45;21.92;;;13.90;99.90;;;;;;5067090;28;20032;-49
2021/08/06 03:21:04;;;;;;;24.40;19.90;;;13.90;99.90;;;;;;5068473;28;20394;-47
2021/08/06 03:23:29;;;;;;;25.10;20.27;;;13.90;99.90;;;;;;5066300;28;20357;-47
2021/08/06 03:25:55;;;;;;;28.05;21.25;;;13.90;99.90;;;;;;5068647;28;20035;-46
2021/08/06 03:28:21;;;;;;;21.13;18.45;;;13.90;99.90;;;;;;5069030;28;20058;-47
2021/08/06 03:30:48;;;;;;;23.90;18.38;;;13.80;99.90;;;;;;5068837;28;20032;-46
2021/08/06 03:33:13;;;;;;;23.83;20.48;;;13.80;99.90;;;;;;5068304;28;20021;-47
2021/08/06 03:35:39;;;;;;;25.85;20.75;;;13.80;99.90;;;;;;5068501;28;20032;-47
2021/08/06 03:38:16;;;;;;;29.10;22.00;;;13.80;99.90;;;;;;5068415;28;20445;-47
2021/08/06 03:40:41;;;;;;;23.33;19.98;;;13.70;99.90;;;;;;5070994;28;20062;-48
2021/08/06 03:43:08;;;;;;;23.35;20.05;;;13.70;99.90;;;;;;5072353;28;20421;-46
2021/08/06 03:45:33;;;;;;;26.20;21.35;;;13.70;99.90;;;;;;5071682;28;20032;-47
2021/08/06 03:47:59;;;;;;;25.73;19.85;;;13.70;99.90;;;;;;5072140;28;20024;-46
2021/08/06 03:50:24;;;;;;;22.45;18.77;;;13.70;99.90;;;;;;5072249;28;20028;-47
2021/08/06 03:52:50;;;;;;;30.70;23.27;;;13.70;99.90;;;;;;5072245;28;20074;-47
2021/08/06 03:55:15;;;;;;;27.58;22.15;;;13.60;99.90;;;;;;5071692;28;20117;-47
2021/08/06 03:58:07;;;;;;;24.30;21.60;;;13.70;99.90;;;;;;5072247;28;20036;-48
2021/08/06 04:00:38;;;;;;;24.60;19.90;;;13.60;99.90;;;;;;5069179;28;20040;-50
2021/08/06 04:03:04;;;;;;;26.77;22.17;;;13.60;99.90;;;;;;5071902;28;20016;-47
2021/08/06 04:05:30;;;;;;;24.52;20.17;;;13.70;99.90;;;;;;5071193;28;20020;-46
2021/08/06 04:07:55;;;;;;;23.63;19.08;;;13.60;99.90;;;;;;5071841;28;20028;-47
2021/08/06 04:10:22;;;;;;;23.30;18.33;;;13.70;99.90;;;;;;5071732;28;20109;-46
2021/08/06 04:12:48;;;;;;;27.58;20.90;;;13.60;99.90;;;;;;5071765;28;20513;-46
2021/08/06 04:15:14;;;;;;;27.67;20.83;;;13.60;99.90;;;;;;5071372;28;20036;-50
2021/08/06 04:17:40;;;;;;;21.40;18.23;;;13.70;99.90;;;;;;5071504;28;20029;-47
2021/08/06 04:20:06;;;;;;;23.27;19.77;;;13.70;99.90;;;;;;5072057;28;20421;-47
2021/08/06 04:22:32;;;;;;;20.58;17.83;;;13.70;99.90;;;;;;5071498;28;20024;-47
2021/08/06 04:24:57;;;;;;;21.92;18.02;;;13.70;99.90;;;;;;5070785;28;20546;-47
2021/08/06 04:27:23;;;;;;;21.50;18.33;;;13.70;99.90;;;;;;5071744;28;20032;-47
2021/08/06 04:29:49;;;;;;;20.02;16.80;;;13.80;99.90;;;;;;5070292;28;20052;-48
2021/08/06 04:32:14;;;;;;;22.80;18.48;;;13.80;99.90;;;;;;5070127;28;20028;-47
2021/08/06 04:34:39;;;;;;;20.63;16.63;;;13.90;99.90;;;;;;5070731;28;20029;-48
2021/08/06 04:37:05;;;;;;;21.27;17.35;;;13.90;99.90;;;;;;5071413;28;20070;-46
2021/08/06 04:39:31;;;;;;;21.10;17.38;;;14.00;99.90;;;;;;5071235;28;20127;-48
2021/08/06 04:41:56;;;;;;;22.98;17.50;;;14.00;99.90;;;;;;5071210;28;20398;-47
2021/08/06 04:44:23;;;;;;;20.88;15.57;;;14.00;99.90;;;;;;5070524;28;20028;-48
2021/08/06 04:46:48;;;;;;;19.25;16.75;;;14.00;99.90;;;;;;5069729;28;20031;-47
2021/08/06 04:49:14;;;;;;;23.50;16.95;;;14.10;99.90;;;;;;5071092;28;20032;-49
2021/08/06 04:51:39;;;;;;;23.45;18.27;;;14.10;99.90;;;;;;5070320;28;20038;-47
2021/08/06 04:54:05;;;;;;;24.08;18.30;;;14.10;99.90;;;;;;5070355;28;20058;-47
2021/08/06 04:56:33;;;;;;;27.90;21.88;;;14.20;99.90;;;;;;5070837;28;20032;-47
2021/08/06 04:58:59;;;;;;;25.65;20.98;;;14.20;99.90;;;;;;5070841;28;20031;-47
2021/08/06 05:01:25;;;;;;;23.60;19.65;;;14.10;99.90;;;;;;5070827;28;20028;-47
2021/08/06 05:03:50;;;;;;;24.02;19.58;;;14.20;99.90;;;;;;5070022;28;20029;-47
2021/08/06 05:06:16;;;;;;;29.63;22.27;;;14.20;99.90;;;;;;5071049;28;20488;-46
2021/08/06 05:08:48;;;;;;;28.30;22.48;;;14.20;99.90;;;;;;5070692;28;20032;-46
2021/08/06 05:11:15;;;;;;;29.45;23.75;;;14.20;99.90;;;;;;5070981;28;20036;-48
2021/08/06 05:13:40;;;;;;;31.35;23.77;;;14.30;99.90;;;;;;5068754;28;20278;-47
2021/08/06 05:16:06;;;;;;;31.10;25.52;;;14.30;99.90;;;;;;5070623;28;20036;-47
2021/08/06 05:18:31;;;;;;;31.60;24.90;;;14.30;99.90;;;;;;5070438;28;20029;-49
2021/08/06 05:20:57;;;;;;;29.75;23.90;;;14.30;99.90;;;;;;5070502;28;20334;-47
2021/08/06 05:23:22;;;;;;;32.65;23.92;;;14.40;99.90;;;;;;5070200;28;20024;-52
2021/08/06 05:25:48;;;;;;;33.60;24.17;;;14.40;99.90;;;;;;5070542;28;20111;-47
2021/08/06 05:28:13;;;;;;;33.97;26.10;;;14.40;99.90;;;;;;5070441;28;20159;-47
2021/08/06 05:30:39;;;;;;;30.92;24.95;;;14.50;99.90;;;;;;5070029;28;20036;-47
2021/08/06 05:33:05;;;;;;;35.08;26.60;;;14.50;99.90;;;;;;5070137;28;20029;-47
2021/08/06 05:35:30;;;;;;;30.83;25.88;;;14.60;99.90;;;;;;5069560;28;20055;-47
2021/08/06 05:37:56;;;;;;;34.53;25.23;;;14.60;99.90;;;;;;5070334;28;20031;-47
2021/08/06 05:40:21;;;;;;;32.47;26.02;;;14.70;99.90;;;;;;5070153;28;20382;-47
2021/08/06 05:42:47;;;;;;;34.38;28.10;;;14.70;99.90;;;;;;5070269;28;20468;-47
2021/08/06 05:45:13;;;;;;;29.63;24.73;;;14.80;99.90;;;;;;5069743;28;20033;-48
2021/08/06 05:47:52;;;;;;;29.45;23.90;;;14.80;99.90;;;;;;5069901;28;20072;-48
2021/08/06 05:50:19;;;;;;;31.48;25.08;;;14.80;99.90;;;;;;5068650;28;20021;-48
2021/08/06 05:52:45;;;;;;;27.05;21.75;;;14.90;99.90;;;;;;5069848;28;20047;-46
2021/08/06 05:55:12;;;;;;;32.28;25.70;;;14.90;99.90;;;;;;5069170;28;20033;-47
2021/08/06 05:57:38;;;;;;;29.10;23.65;;;15.00;99.90;;;;;;5069896;28;20397;-47
2021/08/06 06:00:05;;;;;;;31.90;24.83;;;15.10;99.90;;;;;;5069848;28;20037;-49
2021/08/06 06:02:31;;;;;;;24.58;20.73;;;15.10;99.90;;;;;;5069383;28;20428;-46
2021/08/06 06:04:56;;;;;;;34.55;25.27;;;15.20;99.90;;;;;;5068508;28;20020;-46
2021/08/06 06:07:22;;;;;;;32.22;26.25;;;15.30;99.90;;;;;;5069676;28;20112;-48
2021/08/06 06:09:48;;;;;;;33.05;25.10;;;15.40;99.90;;;;;;5069838;28;20494;-46
2021/08/06 06:12:13;;;;;;;32.45;25.88;;;15.40;99.90;;;;;;5068218;28;20036;-46
2021/08/06 06:14:38;;;;;;;28.60;23.42;;;15.50;99.90;;;;;;5068741;28;20119;-45
2021/08/06 06:17:04;;;;;;;26.75;21.63;;;15.60;99.90;;;;;;5068825;28;20116;-47
2021/08/06 06:19:29;;;;;;;27.15;22.40;;;15.70;99.90;;;;;;5069534;28;20039;-45
2021/08/06 06:21:55;;;;;;;27.55;21.25;;;15.70;99.90;;;;;;5067934;28;20386;-46
2021/08/06 06:24:20;;;;;;;25.27;20.77;;;15.80;99.90;;;;;;5068586;28;20172;-46
2021/08/06 06:26:46;;;;;;;25.75;19.48;;;15.90;99.90;;;;;;5067782;28;20024;-49
2021/08/06 06:29:11;;;;;;;25.30;19.63;;;16.00;99.90;;;;;;5068914;28;20021;-46
2021/08/06 06:31:37;;;;;;;23.50;19.92;;;16.10;99.90;;;;;;5067909;28;20123;-46
2021/08/06 06:34:02;;;;;;;22.17;18.50;;;16.10;99.90;;;;;;5068435;28;20029;-48
2021/08/06 06:36:28;;;;;;;24.67;19.27;;;16.30;99.90;;;;;;5069031;28;20036;-48
2021/08/06 06:38:53;;;;;;;26.23;19.88;;;16.40;99.90;;;;;;5068897;28;20367;-49
2021/08/06 06:41:19;;;;;;;22.73;18.40;;;16.50;99.90;;;;;;5067733;28;20021;-48
2021/08/06 06:43:44;;;;;;;28.02;19.88;;;16.60;99.90;;;;;;5068198;28;20076;-49
2021/08/06 06:46:10;;;;;;;21.60;17.90;;;16.80;99.90;;;;;;5068829;28;20027;-47
2021/08/06 06:48:36;;;;;;;26.42;17.23;;;16.90;99.90;;;;;;5069167;28;20055;-47
2021/08/06 06:51:01;;;;;;;19.92;17.20;;;17.10;99.90;;;;;;5067674;28;20390;-46
2021/08/06 06:53:27;;;;;;;21.48;17.05;;;17.30;99.90;;;;;;5068029;28;20037;-47
2021/08/06 06:55:53;;;;;;;19.48;15.57;;;17.40;99.90;;;;;;5068802;28;20490;-47
2021/08/06 06:58:18;;;;;;;20.25;15.75;;;17.40;99.90;;;;;;5068582;28;20036;-47
2021/08/06 07:00:44;;;;;;;23.40;15.95;;;17.60;99.90;;;;;;5068734;28;20432;-47
2021/08/06 07:03:10;;;;;;;22.98;15.95;;;17.70;99.90;;;;;;5068400;28;20017;-46
2021/08/06 07:05:35;;;;;;;21.95;14.50;;;17.80;99.90;;;;;;5066895;28;20402;-47
2021/08/06 07:08:02;;;;;;;18.00;13.60;;;17.90;99.90;;;;;;5068469;28;20073;-48
2021/08/06 07:10:28;;;;;;;14.77;12.82;;;18.10;99.90;;;;;;5068581;28;20359;-46
2021/08/06 07:12:55;;;;;;;15.48;12.48;;;18.10;99.90;;;;;;5066889;28;20046;-48
2021/08/06 07:15:20;;;;;;;14.02;11.13;;;18.30;99.90;;;;;;5066110;28;20039;-47
2021/08/06 07:17:46;;;;;;;14.07;11.65;;;18.30;99.90;;;;;;5068277;28;20398;-47
2021/08/06 07:20:14;;;;;;;15.95;11.10;;;18.40;99.90;;;;;;5068394;28;20435;-46
2021/08/06 07:22:39;;;;;;;12.52;10.80;;;18.50;99.90;;;;;;5067040;28;20024;-47
2021/08/06 07:25:06;;;;;;;12.15;10.63;;;18.70;99.90;;;;;;5067651;28;20024;-48
2021/08/06 07:27:31;;;;;;;11.23;8.88;;;18.80;99.90;;;;;;5066796;28;20547;-48
2021/08/06 07:29:57;;;;;;;13.82;9.20;;;18.90;99.90;;;;;;5068183;28;20033;-50
2021/08/06 07:32:23;;;;;;;11.68;9.90;;;19.00;99.90;;;;;;5066940;28;20036;-47
2021/08/06 07:34:48;;;;;;;13.77;9.27;;;19.10;99.90;;;;;;5067778;28;20025;-47
2021/08/06 07:37:14;;;;;;;10.23;8.95;;;19.20;99.90;;;;;;5068211;28;20385;-47
2021/08/06 07:39:39;;;;;;;9.52;8.38;;;19.40;99.90;;;;;;5068268;28;20597;-47
2021/08/06 07:42:06;;;;;;;10.30;8.45;;;19.50;99.90;;;;;;5066941;28;20017;-46
2021/08/06 07:44:31;;;;;;;9.18;8.23;;;19.60;99.90;;;;;;5067743;28;20028;-47
2021/08/06 07:46:57;;;;;;;8.43;7.43;;;19.70;99.90;;;;;;5068491;28;20077;-50
2021/08/06 07:49:22;;;;;;;9.23;7.40;;;19.90;99.90;;;;;;5066710;28;20035;-47
2021/08/06 07:51:48;;;;;;;12.20;8.05;;;20.10;99.90;;;;;;5067983;28;20024;-47
2021/08/06 07:54:13;;;;;;;10.07;7.47;;;20.30;99.90;;;;;;5067345;28;20635;-47
2021/08/06 07:56:39;;;;;;;8.63;6.80;;;20.40;99.90;;;;;;5067879;28;20021;-47
2021/08/06 07:59:04;;;;;;;8.40;6.70;;;20.60;99.90;;;;;;5067876;28;20040;-47
2021/08/06 08:01:30;;;;;;;7.40;6.47;;;20.80;99.90;;;;;;5068001;28;20029;-48
2021/08/06 08:03:56;;;;;;;18.75;7.45;;;21.00;99.90;;;;;;5067262;28;20040;-47
2021/08/06 08:06:21;;;;;;;7.95;6.70;;;21.20;99.90;;;;;;5066713;28;20116;-48
2021/08/06 08:08:47;;;;;;;9.88;6.38;;;21.20;99.90;;;;;;5068140;28;20033;-47
2021/08/06 08:11:12;;;;;;;6.47;5.82;;;21.40;99.90;;;;;;5067932;28;20279;-48
2021/08/06 08:13:38;;;;;;;6.45;5.50;;;21.60;99.90;;;;;;5067396;28;20039;-47
2021/08/06 08:16:04;;;;;;;6.15;4.97;;;21.90;99.90;;;;;;5067969;28;20025;-48
2021/08/06 08:18:30;;;;;;;6.53;5.50;;;22.00;99.90;;;;;;5067831;28;20028;-47
2021/08/06 08:20:57;;;;;;;8.63;5.07;;;22.20;99.90;;;;;;5068239;28;20091;-48
2021/08/06 08:23:23;;;;;;;6.13;4.88;;;22.30;99.90;;;;;;5067331;28;20093;-50
2021/08/06 08:25:52;;;;;;;5.07;4.63;;;22.70;99.90;;;;;;5067761;28;20479;-49
2021/08/06 08:28:18;;;;;;;5.70;4.82;;;22.90;99.90;;;;;;5071074;28;20535;-47
2021/08/06 08:30:43;;;;;;;5.88;4.50;;;23.30;99.90;;;;;;5071278;28;20032;-51
2021/08/06 08:33:09;;;;;;;6.25;4.15;;;23.40;99.90;;;;;;5071264;28;20116;-53
2021/08/06 08:35:35;;;;;;;7.95;5.03;;;23.80;99.30;;;;;;5070643;28;20031;-48
2021/08/06 08:38:00;;;;;;;9.68;4.50;;;24.20;98.20;;;;;;5071129;28;20029;-48
2021/08/06 08:40:28;;;;;;;4.32;3.72;;;25.40;96.30;;;;;;5071186;28;20030;-50
2021/08/06 08:42:53;;;;;;;4.95;3.78;;;26.90;94.10;;;;;;5071389;28;20082;-48
2021/08/06 08:45:19;;;;;;;4.90;3.90;;;27.40;90.00;;;;;;5069292;28;20357;-50
2021/08/06 08:47:48;;;;;;;5.18;3.47;;;28.00;86.40;;;;;;5071166;28;20028;-50
2021/08/06 08:50:14;;;;;;;6.13;3.50;;;28.60;81.00;;;;;;5070977;28;20039;-48
2021/08/06 08:52:41;;;;;;;4.18;3.30;;;29.70;80.80;;;;;;5070977;28;20048;-50
2021/08/06 08:55:08;;;;;;;3.05;2.75;;;30.50;75.70;;;;;;5070230;28;20043;-48
2021/08/06 08:57:33;;;;;;;4.22;3.55;;;30.80;74.10;;;;;;5070814;28;20020;-51
2021/08/06 08:59:59;;;;;;;3.50;3.10;;;31.50;68.80;;;;;;5070812;28;20026;-48
2021/08/06 09:02:24;;;;;;;3.83;3.45;;;31.90;69.20;;;;;;5070888;28;20028;-48
2021/08/06 09:05:28;;;;;;;3.20;2.90;;;31.30;63.40;;;;;;5070115;28;20382;-51
2021/08/06 09:07:55;;;;;;;2.88;2.67;;;32.00;63.60;;;;;;5070804;28;20173;-50
2021/08/06 09:10:27;;;;;;;3.45;3.13;;;32.70;61.90;;;;;;5070717;28;20037;-50
2021/08/06 09:13:01;;;;;;;7.47;3.63;;;31.70;59.70;;;;;;5070637;28;20035;-48
2021/08/06 09:15:43;;;;;;;3.60;2.75;;;30.80;61.90;;;;;;5070142;28;20028;-49
2021/08/06 09:18:24;;;;;;;3.10;2.80;;;30.00;65.70;;;;;;5070596;28;20044;-48
2021/08/06 09:20:54;;;;;;;3.40;3.00;;;30.50;63.60;;;;;;5070503;28;20047;-48
2021/08/06 09:23:56;;;;;;;10.85;3.47;;;31.10;62.50;;;;;;5069805;28;20509;-49
2021/08/06 09:26:30;;;;;;;3.40;3.13;;;30.40;61.90;;;;;;5027464;28;20240;-49
2021/08/06 09:29:21;;;;;;;3.90;3.10;;;30.70;63.20;;;;;;5064531;28;20481;-50
2021/08/06 09:31:58;;;;;;;3.22;2.92;;;31.20;60.50;;;;;;5070520;28;20115;-50
2021/08/06 09:34:30;;;;;;;3.05;2.72;;;30.70;61.80;;;;;;5069502;28;20035;-48
2021/08/06 09:37:01;;;;;;;3.38;3.03;;;30.80;63.40;;;;;;5070291;28;20406;-49
2021/08/06 09:39:35;;;;;;;3.33;3.03;;;31.00;62.10;;;;;;5070253;28;20041;-48
2021/08/06 09:42:01;;;;;;;6.22;3.35;;;31.10;62.00;;;;;;5070269;28;20055;-49
2021/08/06 09:44:28;;;;;;;3.38;3.08;;;32.10;59.00;;;;;;5069358;28;20474;-48
2021/08/06 09:46:54;;;;;;;3.50;3.20;;;32.20;58.50;;;;;;5069959;28;20024;-49
2021/08/06 09:49:21;;;;;;;4.05;2.85;;;31.80;58.00;;;;;;5070107;28;20021;-50
2021/08/06 09:51:50;;;;;;;2.95;2.75;;;32.00;57.90;;;;;;5070320;28;20089;-48
2021/08/06 09:54:24;;;;;;;2.58;2.38;;;33.20;56.40;;;;;;5069544;28;20035;-51
2021/08/06 09:57:02;;;;;;;3.08;2.72;;;32.90;56.10;;;;;;5068367;28;20302;-52
2021/08/06 09:59:29;;;;;;;2.30;2.10;;;33.40;53.60;;;;;;5068369;28;20056;-52
2021/08/06 10:02:14;;;;;;;2.40;2.20;;;34.40;54.70;;;;;;5069594;28;20031;-55
2021/08/06 10:04:41;;;;;;;2.60;2.40;;;35.80;51.00;;;;;;5067685;28;20387;-51
2021/08/06 10:07:07;;;;;;;2.40;2.10;;;34.80;50.90;;;;;;5068245;28;20070;-52
2021/08/06 10:09:33;;;;;;;2.55;2.28;;;35.90;51.70;;;;;;5069759;28;20025;-51
2021/08/06 10:11:59;;;;;;;2.40;2.20;;;35.40;51.70;;;;;;5068345;28;20490;-52
2021/08/06 10:14:25;;;;;;;2.40;2.17;;;35.80;50.90;;;;;;5068889;28;20037;-51
2021/08/06 10:16:51;;;;;;;3.88;2.30;;;36.50;50.30;;;;;;5069288;28;20020;-51
2021/08/06 10:19:16;;;;;;;3.22;2.40;;;36.00;49.10;;;;;;5069298;28;20031;-49
2021/08/06 10:21:42;;;;;;;2.92;2.63;;;35.60;48.80;;;;;;5069284;28;20056;-51
2021/08/06 10:24:13;;;;;;;3.63;2.40;;;34.10;50.10;;;;;;5068948;28;20051;-50
2021/08/06 10:26:42;;;;;;;3.33;2.60;;;33.50;52.30;;;;;;5069002;28;20504;-49
2021/08/06 10:29:08;;;;;;;;;;;32.00;55.00;;;;;;5069728;28;20028;-49
2021/08/06 10:31:33;;;;;;;6.30;2.70;;;31.30;56.30;;;;;;5069123;28;19958;-48
2021/08/06 10:34:05;;;;;;;3.42;2.78;;;31.10;56.60;;;;;;5068602;28;20229;-49
2021/08/06 10:36:48;;;;;;;5.32;2.22;;;30.60;58.60;;;;;;5069045;28;20032;-51
2021/08/06 10:39:36;;;;;;;4.85;2.60;;;30.50;57.00;;;;;;5068992;28;20020;-50
2021/08/06 10:42:03;;;;;;;2.85;2.65;;;29.80;58.90;;;;;;5069008;28;20017;-48
2021/08/06 10:44:48;;;;;;;3.83;2.50;;;28.50;61.10;;;;;;5068408;28;20020;-48
2021/08/06 10:47:14;;;;;;;2.78;2.58;;;27.80;63.30;;;;;;5068863;28;20029;-48
2021/08/06 10:49:39;;;;;;;3.38;2.33;;;26.70;65.80;;;;;;5068413;28;20111;-51
2021/08/06 10:52:20;;;;;;;3.03;2.67;;;26.20;66.30;;;;;;5068837;28;20480;-47
2021/08/06 10:54:46;;;;;;;;;;;25.90;67.80;;;;;;5068641;28;20021;-47
2021/08/06 10:57:15;;;;;;;3.58;3.28;;;25.40;68.80;;;;;;5068924;28;19995;-47
2021/08/06 10:59:42;;;;;;;3.60;3.30;;;25.30;70.80;;;;;;5068853;28;20024;-47
2021/08/06 11:02:33;;;;;;;3.28;2.97;;;25.00;71.30;;;;;;5067495;28;20294;-48
2021/08/06 11:05:00;;;;;;;4.05;2.97;;;24.80;73.00;;;;;;5068113;28;20428;-47
2021/08/06 11:07:34;;;;;;;3.97;3.47;;;24.50;73.40;;;;;;5068724;28;20029;-47
2021/08/06 11:10:00;;;;;;;3.55;2.95;;;24.40;76.30;;;;;;5069230;28;20115;-49
2021/08/06 11:12:31;;;;;;;4.10;3.15;;;24.20;77.60;;;;;;5069136;28;20123;-48
2021/08/06 11:14:59;;;;;;;3.72;3.40;;;24.20;78.30;;;;;;5068428;28;20070;-47
2021/08/06 11:17:34;;;;;;;3.70;3.38;;;23.80;79.90;;;;;;5069013;28;20031;-48
2021/08/06 11:20:17;;;;;;;2.92;2.45;;;23.50;82.10;;;;;;5069249;28;20017;-47
2021/08/06 11:22:52;;;;;;;3.22;2.92;;;23.30;83.80;;;;;;5069205;28;20028;-47
2021/08/06 11:25:24;;;;;;;5.15;3.63;;;22.80;87.80;;;;;;5067951;28;20035;-48
2021/08/06 11:27:55;;;;;;;3.42;3.00;;;23.00;90.30;;;;;;5068621;28;20190;-48
2021/08/06 11:30:25;;;;;;;4.03;2.90;;;23.00;92.60;;;;;;5068610;28;20035;-48
2021/08/06 11:32:51;;;;;;;;;;;22.80;92.20;;;;;;5068921;28;20020;-47
2021/08/06 11:35:18;;;;;;;3.30;2.70;;;22.80;93.30;;;;;;5066157;28;20354;-47
2021/08/06 11:37:57;;;;;;;2.25;2.05;;;22.70;94.00;;;;;;5068326;28;20032;-47
2021/08/06 11:40:25;;;;;;;3.22;2.72;;;22.70;95.40;;;;;;5068317;28;20571;-48
2021/08/06 11:42:51;;;;;;;2.28;2.08;;;22.70;97.00;;;;;;5068315;28;20029;-48
2021/08/06 11:45:22;;;;;;;2.60;2.40;;;22.80;98.30;;;;;;5066061;28;20051;-50
2021/08/06 11:47:50;;;;;;;2.30;2.08;;;22.80;97.90;;;;;;5068142;28;20247;-48
2021/08/06 11:50:35;;;;;;;2.85;2.65;;;22.80;97.50;;;;;;5068151;28;20024;-49
2021/08/06 11:53:01;;;;;;;7.35;3.72;;;22.50;98.60;;;;;;5066821;28;20112;-48
2021/08/06 11:55:30;;;;;;;4.28;3.53;;;21.70;99.90;;;;;;5067542;28;20170;-48
2021/08/06 11:57:57;;;;;;;5.07;3.58;;;21.40;99.90;;;;;;5068598;28;20060;-47
2021/08/06 12:00:32;;;;;;;5.38;3.00;;;21.10;99.90;;;;;;5068104;28;20020;-50
2021/08/06 12:03:07;;;;;;;3.30;3.00;;;21.10;99.90;;;;;;5071026;28;20032;-49
2021/08/06 12:05:34;;;;;;;3.20;2.75;;;21.30;99.90;;;;;;5071568;28;20048;-48
2021/08/06 12:08:20;;;;;;;3.97;2.58;;;21.40;99.90;;;;;;5071844;28;20019;-47
2021/08/06 12:10:48;;;;;;;3.78;2.28;;;21.50;99.90;;;;;;5071809;28;20044;-49
2021/08/06 12:13:16;;;;;;;4.05;2.70;;;21.80;99.90;;;;;;5071249;28;20134;-48
2021/08/06 12:15:42;;;;;;;3.00;2.22;;;22.20;99.90;;;;;;5071385;28;20379;-48
2021/08/06 12:18:19;;;;;;;5.13;2.42;;;22.50;99.90;;;;;;5071523;28;20054;-48
2021/08/06 12:20:57;;;;;;;3.33;2.50;;;23.40;99.90;;;;;;5071596;28;20017;-48
2021/08/06 12:23:23;;;;;;;3.03;2.42;;;24.40;98.70;;;;;;5070836;28;20020;-49
2021/08/06 12:26:07;;;;;;;2.30;2.10;;;25.20;97.70;;;;;;5071535;28;20059;-48
2021/08/06 12:28:34;;;;;;;3.47;2.35;;;26.10;97.40;;;;;;5071424;28;20060;-49
2021/08/06 12:31:07;;;;;;;2.50;2.08;;;26.70;95.60;;;;;;5071317;28;20028;-48
2021/08/06 12:33:34;;;;;;;2.33;2.13;;;26.90;92.50;;;;;;5070441;28;20050;-48
2021/08/06 12:36:25;;;;;;;2.08;1.90;;;26.70;92.60;;;;;;5071322;28;20020;-50
2021/08/06 12:38:51;;;;;;;2.83;2.45;;;26.50;91.70;;;;;;5069093;28;20491;-48
2021/08/06 12:41:31;;;;;;;3.05;2.22;;;26.10;92.10;;;;;;5071267;28;20103;-47